createdAt,value
2023-11-15T00:00:19.665Z,98859.70
2023-11-15T00:03:08.767Z,98853.67
2023-11-15T00:05:37.230Z,98855.09
2023-11-15T00:08:05.814Z,98855.23
2023-11-15T00:10:33.792Z,98853.41
2023-11-15T00:13:01.996Z,98852.98
2023-11-15T00:15:31.830Z,98848.92
2023-11-15T00:18:06.033Z,98848.11
2023-11-15T00:20:37.611Z,98849.17
2023-11-15T00:23:05.659Z,98848.84
2023-11-15T00:25:34.107Z,98850.34
2023-11-15T00:28:03.868Z,98849.80
2023-11-15T00:30:31.964Z,98854.66
2023-11-15T00:33:00.399Z,98851.03
2023-11-15T00:35:29.992Z,98850.66
2023-11-15T00:37:58.803Z,98851.34
2023-11-15T00:40:27.137Z,98851.10
2023-11-15T00:42:55.634Z,98855.64
2023-11-15T00:45:25.286Z,98850.90
2023-11-15T00:47:53.397Z,98853.10
2023-11-15T00:50:21.548Z,98851.14
2023-11-15T00:52:49.591Z,98850.73
2023-11-15T00:55:18.356Z,98850.15
2023-11-15T00:57:47.032Z,98848.55
2023-11-15T01:00:28.753Z,98846.85
2023-11-15T01:02:58.982Z,98848.30
2023-11-15T01:05:30.241Z,98848.27
2023-11-15T01:08:01.335Z,98843.24
2023-11-15T01:10:29.499Z,98837.79
2023-11-15T01:12:57.433Z,98837.87
2023-11-15T01:15:25.712Z,98843.30
2023-11-15T01:17:58.553Z,98837.59
2023-11-15T01:20:26.806Z,98836.06
2023-11-15T01:22:55.018Z,98837.30
2023-11-15T01:25:23.014Z,98833.73
2023-11-15T01:27:51.574Z,98839.38
2023-11-15T01:30:19.444Z,98837.89
2023-11-15T01:32:47.504Z,98839.91
2023-11-15T01:35:18.076Z,98840.41
2023-11-15T01:37:49.206Z,98839.34
2023-11-15T01:40:21.322Z,98840.31
2023-11-15T01:42:51.031Z,98837.44
2023-11-15T01:45:19.929Z,98838.93
2023-11-15T01:47:48.125Z,98839.05
2023-11-15T01:50:16.454Z,98841.10
2023-11-15T01:52:47.448Z,98839.65
2023-11-15T01:55:19.934Z,98840.25
2023-11-15T01:57:49.360Z,98842.03
2023-11-15T02:00:18.095Z,98846.98
2023-11-15T02:02:46.276Z,98844.63
2023-11-15T02:05:16.948Z,98844.48
2023-11-15T02:07:45.045Z,98836.91
2023-11-15T02:10:14.840Z,98836.90
2023-11-15T02:12:42.968Z,98835.20
2023-11-15T02:15:11.507Z,98836.20
2023-11-15T02:17:40.338Z,98839.06
2023-11-15T02:20:09.708Z,98843.05
2023-11-15T02:22:57.849Z,98842.88
2023-11-15T02:25:26.142Z,98845.65
2023-11-15T02:27:54.609Z,98849.48
2023-11-15T02:30:22.792Z,98850.69
2023-11-15T02:32:50.831Z,98852.06
2023-11-15T02:35:18.872Z,98854.64
2023-11-15T02:37:46.973Z,98858.20
2023-11-15T02:40:15.085Z,98857.23
2023-11-15T02:42:43.291Z,98858.91
2023-11-15T02:45:11.595Z,98862.05
2023-11-15T02:47:39.858Z,98859.68
2023-11-15T02:50:09.300Z,98861.89
2023-11-15T02:52:37.268Z,98863.91
2023-11-15T02:55:05.675Z,98865.41
2023-11-15T02:57:33.774Z,98867.07
2023-11-15T03:00:01.916Z,98868.96
2023-11-15T03:02:30.790Z,98872.34
2023-11-15T03:04:59.310Z,98870.61
2023-11-15T03:07:27.626Z,98875.50
2023-11-15T03:09:55.679Z,98877.41
2023-11-15T03:12:23.596Z,98882.36
2023-11-15T03:14:53.113Z,98883.46
2023-11-15T03:17:22.822Z,98884.11
2023-11-15T03:19:51.471Z,98885.83
2023-11-15T03:22:19.736Z,98884.84
2023-11-15T03:24:47.744Z,98893.13
2023-11-15T03:27:15.764Z,98887.94
2023-11-15T03:29:44.054Z,98890.88
2023-11-15T03:32:12.298Z,98890.85
2023-11-15T03:34:43.293Z,98891.54
2023-11-15T03:37:11.591Z,98889.27
2023-11-15T03:39:39.835Z,98891.02
2023-11-15T03:42:08.135Z,98886.67
2023-11-15T03:44:36.142Z,98889.93
2023-11-15T03:47:05.233Z,98891.64
2023-11-15T03:49:33.213Z,98888.81
2023-11-15T03:52:01.906Z,98893.02
2023-11-15T03:54:29.927Z,98894.11
2023-11-15T03:56:58.006Z,98894.52
2023-11-15T03:59:26.093Z,98896.81
2023-11-15T04:01:57.496Z,98895.50
2023-11-15T04:04:28.204Z,98896.23
2023-11-15T04:06:56.293Z,98898.82
2023-11-15T04:09:24.335Z,98896.70
2023-11-15T04:11:53.524Z,98899.23
2023-11-15T04:14:23.410Z,98897.90
2023-11-15T04:16:51.748Z,98896.88
2023-11-15T04:19:23.681Z,98898.97
2023-11-15T04:22:05.320Z,98900.70
2023-11-15T04:24:40.920Z,98898.70
2023-11-15T04:27:09.328Z,98898.15
2023-11-15T04:29:44.325Z,98902.79
2023-11-15T04:32:12.536Z,98898.69
2023-11-15T04:34:40.600Z,98903.58
2023-11-15T04:37:10.501Z,98905.38
2023-11-15T04:39:38.657Z,98910.33
2023-11-15T04:42:07.250Z,98910.64
2023-11-15T04:44:35.239Z,98911.36
2023-11-15T04:47:04.859Z,98918.07
2023-11-15T04:49:33.121Z,98914.52
2023-11-15T04:52:01.320Z,98911.08
2023-11-15T04:54:29.816Z,98912.75
2023-11-15T04:56:57.773Z,98916.75
2023-11-15T04:59:25.777Z,98919.61
2023-11-15T05:01:53.769Z,98924.13
2023-11-15T05:04:23.023Z,98919.83
2023-11-15T05:06:51.439Z,98916.77
2023-11-15T05:09:19.503Z,98918.39
2023-11-15T05:11:47.565Z,98921.36
2023-11-15T05:14:15.810Z,98921.28
2023-11-15T05:16:43.907Z,98926.30
2023-11-15T05:19:12.014Z,98924.70
2023-11-15T05:21:39.985Z,98929.46
2023-11-15T05:24:08.263Z,98933.14
2023-11-15T05:26:36.314Z,98933.00
2023-11-15T05:29:04.726Z,98936.90
2023-11-15T05:31:32.772Z,98936.77
2023-11-15T05:34:00.777Z,98941.22
2023-11-15T05:36:28.990Z,98940.09
2023-11-15T05:38:56.954Z,98942.08
2023-11-15T05:41:28.346Z,98946.10
2023-11-15T05:43:58.274Z,98947.46
2023-11-15T05:46:27.030Z,98951.00
2023-11-15T05:48:55.073Z,98953.98
2023-11-15T05:51:23.075Z,98958.45
2023-11-15T05:53:51.104Z,98959.33
2023-11-15T05:56:19.161Z,98960.29
2023-11-15T05:58:47.399Z,98962.43
2023-11-15T06:01:15.518Z,98962.96
2023-11-15T06:03:43.635Z,98965.45
2023-11-15T06:06:12.074Z,98965.98
2023-11-15T06:08:40.390Z,98967.61
2023-11-15T06:11:08.318Z,98968.66
2023-11-15T06:13:39.027Z,98974.64
2023-11-15T06:16:07.486Z,98977.54
2023-11-15T06:18:36.960Z,98980.06
2023-11-15T06:21:05.501Z,98978.06
2023-11-15T06:23:35.618Z,98982.25
2023-11-15T06:26:04.237Z,98986.42
2023-11-15T06:28:35.428Z,98986.16
2023-11-15T06:31:04.808Z,98988.98
2023-11-15T06:33:32.901Z,98990.33
2023-11-15T06:36:02.466Z,98985.65
2023-11-15T06:38:30.991Z,98990.27
2023-11-15T06:41:01.756Z,98990.51
2023-11-15T06:43:30.288Z,98992.89
2023-11-15T06:45:58.330Z,98995.08
2023-11-15T06:48:26.502Z,98997.52
2023-11-15T06:50:54.864Z,98999.73
2023-11-15T06:53:22.928Z,99003.80
2023-11-15T06:55:50.879Z,99005.20
2023-11-15T06:58:20.874Z,99009.71
2023-11-15T07:00:51.026Z,99010.41
2023-11-15T07:03:19.476Z,99014.50
2023-11-15T07:05:50.280Z,99017.23
2023-11-15T07:08:18.564Z,99017.47
2023-11-15T07:10:46.595Z,99020.52
2023-11-15T07:13:14.922Z,99025.78
2023-11-15T07:15:44.537Z,99028.11
2023-11-15T07:18:13.583Z,99030.77
2023-11-15T07:20:43.162Z,99032.96
2023-11-15T07:23:13.219Z,99033.93
2023-11-15T07:25:41.309Z,99040.14
2023-11-15T07:28:11.580Z,99040.21
2023-11-15T07:30:39.669Z,99039.93
2023-11-15T07:33:07.782Z,99039.21
2023-11-15T07:35:37.773Z,99042.45
2023-11-15T07:38:09.242Z,99043.45
2023-11-15T07:40:38.632Z,99042.64
2023-11-15T07:43:09.510Z,99042.11
2023-11-15T07:45:37.748Z,99044.54
2023-11-15T07:48:11.761Z,99039.83
2023-11-15T07:50:40.177Z,99040.80
2023-11-15T07:53:08.288Z,99041.89
2023-11-15T07:55:37.109Z,99047.08
2023-11-15T07:58:07.637Z,99049.34
2023-11-15T08:00:37.029Z,99047.55
2023-11-15T08:03:06.043Z,99049.36
2023-11-15T08:05:34.530Z,99055.73
2023-11-15T08:08:03.213Z,99058.88
2023-11-15T08:10:32.664Z,99061.48
2023-11-15T08:13:00.830Z,99066.13
2023-11-15T08:15:29.066Z,99066.99
2023-11-15T08:17:57.877Z,99076.10
2023-11-15T08:20:26.240Z,99077.18
2023-11-15T08:22:54.363Z,99084.15
2023-11-15T08:25:22.898Z,99084.19
2023-11-15T08:27:52.926Z,99084.89
2023-11-15T08:30:21.142Z,99086.70
2023-11-15T08:32:53.824Z,99085.48
2023-11-15T08:35:22.937Z,99089.70
2023-11-15T08:37:53.979Z,99092.55
2023-11-15T08:40:29.036Z,99095.91
2023-11-15T08:42:58.838Z,99101.40
2023-11-15T08:45:27.731Z,99107.26
2023-11-15T08:47:59.457Z,99107.34
2023-11-15T08:50:28.861Z,99113.37
2023-11-15T08:52:58.007Z,99111.66
2023-11-15T08:55:26.187Z,99114.79
2023-11-15T08:57:54.375Z,99117.73
2023-11-15T09:00:22.404Z,99117.55
2023-11-15T09:02:51.809Z,99122.58
2023-11-15T09:05:23.950Z,99125.52
2023-11-15T09:07:53.336Z,99130.78
2023-11-15T09:10:23.109Z,99128.48
2023-11-15T09:12:51.163Z,99134.41
2023-11-15T09:15:21.621Z,99136.94
2023-11-15T09:17:51.906Z,99137.63
2023-11-15T09:20:27.526Z,99144.41
2023-11-15T09:22:56.266Z,99144.13
2023-11-15T09:25:32.468Z,99143.05
2023-11-15T09:28:01.792Z,99144.48
2023-11-15T09:30:32.661Z,99145.66
2023-11-15T09:33:04.989Z,99144.13
2023-11-15T09:35:35.889Z,99144.95
2023-11-15T09:38:12.378Z,99147.52
2023-11-15T09:40:40.676Z,99141.40
2023-11-15T09:43:09.305Z,99141.34
2023-11-15T09:45:43.055Z,99142.23
2023-11-15T09:48:11.658Z,99142.77
2023-11-15T09:50:43.003Z,99141.45
2023-11-15T09:53:13.280Z,99146.67
2023-11-15T09:55:41.336Z,99147.88
2023-11-15T09:58:09.438Z,99147.25
2023-11-15T10:00:37.651Z,99150.84
2023-11-15T10:03:06.772Z,99150.20
2023-11-15T10:05:34.822Z,99156.76
2023-11-15T10:08:14.873Z,99156.38
2023-11-15T10:10:45.751Z,99155.51
2023-11-15T10:13:19.778Z,99157.52
2023-11-15T10:15:48.163Z,99165.23
2023-11-15T10:18:30.483Z,99164.77
2023-11-15T10:21:16.953Z,99169.67
2023-11-15T10:23:46.155Z,99173.05
2023-11-15T10:26:14.501Z,99170.04
2023-11-15T10:28:42.786Z,99170.96
2023-11-15T10:31:16.075Z,99168.17
2023-11-15T10:33:50.833Z,99170.00
2023-11-15T10:36:20.875Z,99174.13
2023-11-15T10:38:52.735Z,99176.45
2023-11-15T10:41:24.143Z,99175.29
2023-11-15T10:43:53.973Z,99177.69
2023-11-15T10:46:32.361Z,99182.03
2023-11-15T10:49:02.944Z,99179.54
2023-11-15T10:51:48.703Z,99179.28
2023-11-15T10:54:18.594Z,99184.41
2023-11-15T10:56:51.108Z,99189.23
2023-11-15T10:59:20.332Z,99190.70
2023-11-15T11:01:48.766Z,99195.95
2023-11-15T11:04:17.353Z,99194.19
2023-11-15T11:07:06.251Z,99198.62
2023-11-15T11:09:47.549Z,99198.63
2023-11-15T11:12:23.755Z,99201.45
2023-11-15T11:15:18.450Z,99199.89
2023-11-15T11:17:49.856Z,99203.00
2023-11-15T11:20:27.088Z,99208.61
2023-11-15T11:23:20.874Z,99206.27
2023-11-15T11:25:49.975Z,99210.27
2023-11-15T11:28:22.127Z,99209.95
2023-11-15T11:31:17.399Z,99216.52
2023-11-15T11:34:12.086Z,99218.56
2023-11-15T11:36:51.997Z,99218.29
2023-11-15T11:39:22.233Z,99220.52
2023-11-15T11:41:50.655Z,99225.91
2023-11-15T11:44:22.885Z,99226.20
2023-11-15T11:47:04.953Z,99231.35
2023-11-15T11:49:46.645Z,99230.63
2023-11-15T11:52:21.216Z,99234.85
2023-11-15T11:54:54.623Z,99241.36
2023-11-15T11:57:25.720Z,99244.67
2023-11-15T12:00:15.837Z,99242.67
2023-11-15T12:02:49.330Z,99243.70
2023-11-15T12:05:22.675Z,99240.55
2023-11-15T12:07:54.330Z,99242.84
2023-11-15T12:10:22.372Z,99242.03
2023-11-15T12:13:00.981Z,99245.34
2023-11-15T12:15:29.133Z,99245.81
2023-11-15T12:17:59.048Z,99257.23
2023-11-15T12:20:34.675Z,99258.89
2023-11-15T12:23:04.960Z,99259.71
2023-11-15T12:25:43.037Z,99265.73
2023-11-15T12:28:12.573Z,99266.34
2023-11-15T12:30:40.726Z,99268.34
2023-11-15T12:33:09.044Z,99268.77
2023-11-15T12:35:38.309Z,99270.42
2023-11-15T12:38:14.424Z,99269.80
2023-11-15T12:40:43.946Z,99276.13
2023-11-15T12:43:27.064Z,99277.96
2023-11-15T12:46:04.631Z,99280.00
2023-11-15T12:48:33.425Z,99282.50
2023-11-15T12:51:03.095Z,99286.98
2023-11-15T12:53:32.574Z,99296.38
2023-11-15T12:56:01.659Z,99298.23
2023-11-15T12:58:30.220Z,99301.01
2023-11-15T13:01:08.651Z,99312.11
2023-11-15T13:03:38.148Z,99309.56
2023-11-15T13:06:17.106Z,99312.56
2023-11-15T13:08:51.498Z,99317.88
2023-11-15T13:11:27.392Z,99316.15
2023-11-15T13:13:55.671Z,99320.86
2023-11-15T13:16:27.688Z,99322.67
2023-11-15T13:18:55.906Z,99331.15
2023-11-15T13:21:24.974Z,99347.27
2023-11-15T13:23:54.007Z,99358.66
2023-11-15T13:26:23.185Z,99363.49
2023-11-15T13:28:51.521Z,99364.80
2023-11-15T13:31:25.408Z,99370.92
2023-11-15T13:33:57.218Z,99375.98
2023-11-15T13:36:27.054Z,99385.07
2023-11-15T13:38:55.151Z,99392.59
2023-11-15T13:41:26.224Z,99394.95
2023-11-15T13:43:54.585Z,99404.91
2023-11-15T13:46:29.995Z,99410.83
2023-11-15T13:49:03.420Z,99413.48
2023-11-15T13:51:31.770Z,99420.05
2023-11-15T13:53:59.858Z,99428.79
2023-11-15T13:56:27.913Z,99439.41
2023-11-15T13:58:57.019Z,99440.60
2023-11-15T14:01:25.692Z,99457.06
2023-11-15T14:03:53.710Z,99468.92
2023-11-15T14:06:21.717Z,99475.33
2023-11-15T14:08:56.170Z,99484.27
2023-11-15T14:11:31.472Z,99490.96
2023-11-15T14:13:59.425Z,99499.20
2023-11-15T14:16:27.723Z,99502.64
2023-11-15T14:18:56.623Z,99509.59
2023-11-15T14:21:25.588Z,99514.92
2023-11-15T14:23:53.930Z,99518.20
2023-11-15T14:26:22.057Z,99528.65
2023-11-15T14:28:50.724Z,99538.61
2023-11-15T14:31:19.255Z,99543.52
2023-11-15T14:33:47.390Z,99543.25
2023-11-15T14:36:17.495Z,99548.96
2023-11-15T14:38:48.219Z,99557.14
2023-11-15T14:41:17.680Z,99561.91
2023-11-15T14:43:46.903Z,99571.80
2023-11-15T14:46:18.055Z,99576.45
2023-11-15T14:48:46.130Z,99577.66
2023-11-15T14:51:14.287Z,99585.09
2023-11-15T14:53:54.233Z,99588.15
2023-11-15T14:56:24.170Z,99592.33
2023-11-15T14:58:54.826Z,99597.80
2023-11-15T15:01:25.439Z,99600.70
2023-11-15T15:03:54.082Z,99604.20
2023-11-15T15:06:23.198Z,99612.55
2023-11-15T15:08:51.563Z,99615.79
2023-11-15T15:11:19.656Z,99620.62
2023-11-15T15:13:47.578Z,99628.13
2023-11-15T15:16:17.168Z,99636.48
2023-11-15T15:18:45.289Z,99639.92
2023-11-15T15:21:16.056Z,99649.18
2023-11-15T15:23:44.709Z,99650.34
2023-11-15T15:26:15.774Z,99651.23
2023-11-15T15:28:43.752Z,99657.64
2023-11-15T15:31:14.166Z,99660.94
2023-11-15T15:33:43.709Z,99665.33
2023-11-15T15:36:11.839Z,99672.42
2023-11-15T15:38:40.249Z,99680.32
2023-11-15T15:41:08.457Z,99689.99
2023-11-15T15:43:36.601Z,99701.36
2023-11-15T15:46:04.930Z,99702.86
2023-11-15T15:48:32.918Z,99708.31
2023-11-15T15:51:00.926Z,99716.64
2023-11-15T15:53:29.029Z,99716.44
2023-11-15T15:55:59.995Z,99726.42
2023-11-15T15:58:28.152Z,99730.80
2023-11-15T16:00:56.123Z,99737.52
2023-11-15T16:03:24.696Z,99742.47
2023-11-15T16:05:53.067Z,99753.54
2023-11-15T16:08:21.133Z,99757.95
2023-11-15T16:10:51.475Z,99761.23
2023-11-15T16:13:19.807Z,99763.84
2023-11-15T16:15:47.896Z,99766.27
2023-11-15T16:18:16.679Z,99776.63
2023-11-15T16:20:44.808Z,99783.64
2023-11-15T16:23:12.956Z,99787.79
2023-11-15T16:25:40.976Z,99795.23
2023-11-15T16:28:09.024Z,99795.90
2023-11-15T16:30:37.183Z,99802.41
2023-11-15T16:33:07.897Z,99804.67
2023-11-15T16:35:36.299Z,99810.74
2023-11-15T16:38:05.082Z,99811.04
2023-11-15T16:40:33.079Z,99815.41
2023-11-15T16:43:01.004Z,99817.27
2023-11-15T16:45:29.144Z,99824.65
2023-11-15T16:47:57.378Z,99827.01
2023-11-15T16:50:25.393Z,99831.91
2023-11-15T16:52:53.276Z,99840.52
2023-11-15T16:55:22.194Z,99844.70
2023-11-15T16:57:50.126Z,99851.52
2023-11-15T17:00:21.685Z,99860.86
2023-11-15T17:02:50.910Z,99864.77
2023-11-15T17:05:21.117Z,99876.87
2023-11-15T17:07:49.260Z,99876.88
2023-11-15T17:10:17.219Z,99894.39
2023-11-15T17:12:45.171Z,99897.34
2023-11-15T17:15:13.256Z,99901.73
2023-11-15T17:17:41.364Z,99904.14
2023-11-15T17:20:09.978Z,99909.52
2023-11-15T17:22:37.985Z,99912.48
2023-11-15T17:25:18.935Z,99915.77
2023-11-15T17:27:48.423Z,99915.63
2023-11-15T17:30:16.402Z,99919.20
2023-11-15T17:32:44.430Z,99923.30
2023-11-15T17:35:13.588Z,99925.46
2023-11-15T17:37:44.443Z,99932.96
2023-11-15T17:40:14.270Z,99934.37
2023-11-15T17:42:43.010Z,99944.25
2023-11-15T17:45:12.838Z,99955.91
2023-11-15T17:47:43.202Z,99961.63
2023-11-15T17:50:13.512Z,99971.02
2023-11-15T17:52:43.704Z,99980.39
2023-11-15T17:55:15.558Z,99986.26
2023-11-15T17:57:47.373Z,99993.63
2023-11-15T18:00:15.876Z,99998.52
2023-11-15T18:02:47.981Z,100004.65
2023-11-15T18:05:16.358Z,100015.63
2023-11-15T18:07:44.945Z,100018.55
2023-11-15T18:10:15.904Z,100021.52
2023-11-15T18:12:45.383Z,100026.07
2023-11-15T18:15:14.031Z,100031.13
2023-11-15T18:17:42.161Z,100031.38
2023-11-15T18:20:13.497Z,100037.08
2023-11-15T18:22:42.060Z,100038.19
2023-11-15T18:25:13.185Z,100045.61
2023-11-15T18:27:42.765Z,100042.11
2023-11-15T18:30:13.762Z,100043.89
2023-11-15T18:32:46.373Z,100049.35
2023-11-15T18:35:18.178Z,100052.31
2023-11-15T18:37:46.389Z,100058.94
2023-11-15T18:40:18.236Z,100063.95
2023-11-15T18:42:46.672Z,100072.83
2023-11-15T18:45:15.142Z,100075.48
2023-11-15T18:47:45.510Z,100076.63
2023-11-15T18:50:15.905Z,100078.86
2023-11-15T18:52:45.018Z,100081.38
2023-11-15T18:55:15.301Z,100090.26
2023-11-15T18:57:45.112Z,100088.66
2023-11-15T19:00:19.674Z,100094.94
2023-11-15T19:02:48.186Z,100092.41
2023-11-15T19:05:17.657Z,100096.59
2023-11-15T19:07:47.088Z,100098.15
2023-11-15T19:10:18.518Z,100095.80
2023-11-15T19:12:50.060Z,100094.94
2023-11-15T19:15:18.428Z,100094.10
2023-11-15T19:17:52.826Z,100099.52
2023-11-15T19:20:22.633Z,100103.10
2023-11-15T19:22:52.063Z,100107.13
2023-11-15T19:25:20.448Z,100109.89
2023-11-15T19:27:48.758Z,100114.94
2023-11-15T19:30:17.826Z,100119.50
2023-11-15T19:32:46.832Z,100127.09
2023-11-15T19:35:18.184Z,100133.76
2023-11-15T19:37:47.707Z,100144.61
2023-11-15T19:40:16.603Z,100151.44
2023-11-15T19:42:45.069Z,100150.59
2023-11-15T19:45:13.140Z,100156.71
2023-11-15T19:47:41.642Z,100162.53
2023-11-15T19:50:10.012Z,100163.28
2023-11-15T19:52:38.125Z,100164.38
2023-11-15T19:55:09.561Z,100165.56
2023-11-15T19:57:41.795Z,100169.77
2023-11-15T20:00:14.354Z,100168.39
2023-11-15T20:02:46.870Z,100172.27
2023-11-15T20:05:16.856Z,100172.14
2023-11-15T20:07:45.144Z,100172.95
2023-11-15T20:10:14.372Z,100173.18
2023-11-15T20:12:44.102Z,100179.19
2023-11-15T20:15:14.477Z,100177.47
2023-11-15T20:17:43.841Z,100183.26
2023-11-15T20:20:15.523Z,100182.77
2023-11-15T20:22:50.665Z,100193.42
2023-11-15T20:25:20.985Z,100193.66
2023-11-15T20:27:49.097Z,100201.75
2023-11-15T20:30:18.616Z,100202.30
2023-11-15T20:32:48.143Z,100210.17
2023-11-15T20:35:16.975Z,100212.66
2023-11-15T20:37:45.014Z,100213.23
2023-11-15T20:40:16.323Z,100216.20
2023-11-15T20:42:48.108Z,100217.81
2023-11-15T20:45:16.816Z,100216.30
2023-11-15T20:47:45.275Z,100215.98
2023-11-15T20:50:13.677Z,100216.65
2023-11-15T20:52:41.939Z,100218.23
2023-11-15T20:55:11.353Z,100216.59
2023-11-15T20:57:40.618Z,100219.33
2023-11-15T21:00:14.511Z,100223.08
2023-11-15T21:02:42.832Z,100222.71
2023-11-15T21:05:13.066Z,100226.61
2023-11-15T21:07:41.430Z,100227.79
2023-11-15T21:10:09.802Z,100232.48
2023-11-15T21:12:38.846Z,100234.55
2023-11-15T21:15:11.029Z,100240.42
2023-11-15T21:17:39.367Z,100242.60
2023-11-15T21:20:12.226Z,100246.21
2023-11-15T21:22:41.399Z,100249.46
2023-11-15T21:25:13.796Z,100249.96
2023-11-15T21:27:43.959Z,100248.16
2023-11-15T21:30:13.692Z,100250.39
2023-11-15T21:32:43.097Z,100252.83
2023-11-15T21:35:12.665Z,100258.91
2023-11-15T21:37:47.050Z,100258.14
2023-11-15T21:40:19.515Z,100261.88
2023-11-15T21:42:49.419Z,100262.67
2023-11-15T21:45:19.136Z,100266.33
2023-11-15T21:47:48.451Z,100267.89
2023-11-15T21:50:22.312Z,100271.33
2023-11-15T21:52:51.873Z,100277.43
2023-11-15T21:55:20.391Z,100281.06
2023-11-15T21:57:49.101Z,100277.74
2023-11-15T22:00:22.479Z,100282.65
2023-11-15T22:02:51.009Z,100283.42
2023-11-15T22:05:19.354Z,100284.90
2023-11-15T22:07:48.166Z,100287.45
2023-11-15T22:10:16.847Z,100296.08
2023-11-15T22:12:45.966Z,100301.91
2023-11-15T22:15:14.410Z,100306.19
2023-11-15T22:17:42.669Z,100307.50
2023-11-15T22:20:12.514Z,100308.77
2023-11-15T22:22:40.570Z,100310.74
2023-11-15T22:25:09.365Z,100316.20
2023-11-15T22:27:37.664Z,100317.81
2023-11-15T22:30:08.203Z,100320.52
2023-11-15T22:32:36.778Z,100324.77
2023-11-15T22:35:05.289Z,100322.73
2023-11-15T22:37:34.166Z,100324.55
2023-11-15T22:40:02.771Z,100326.50
2023-11-15T22:42:30.873Z,100334.91
2023-11-15T22:44:58.877Z,100341.07
2023-11-15T22:47:27.043Z,100345.67
2023-11-15T22:49:55.061Z,100349.89
2023-11-15T22:52:23.090Z,100353.71
2023-11-15T22:54:51.811Z,100359.59
2023-11-15T22:57:19.932Z,100355.52
2023-11-15T22:59:50.291Z,100362.45
2023-11-15T23:02:20.340Z,100366.02
2023-11-15T23:04:48.595Z,100367.14
2023-11-15T23:07:21.858Z,100368.79
2023-11-15T23:09:50.742Z,100374.99
2023-11-15T23:12:18.789Z,100375.51
2023-11-15T23:14:46.878Z,100376.23
2023-11-15T23:17:14.937Z,100379.53
2023-11-15T23:19:43.960Z,100377.92
2023-11-15T23:22:12.474Z,100380.36
2023-11-15T23:24:41.057Z,100385.60
2023-11-15T23:27:11.417Z,100383.17
2023-11-15T23:29:39.477Z,100384.23
2023-11-15T23:32:08.605Z,100377.77
2023-11-15T23:34:36.661Z,100375.30
2023-11-15T23:37:04.796Z,100376.50
2023-11-15T23:39:33.549Z,100381.96
2023-11-15T23:42:01.591Z,100384.23
2023-11-15T23:44:29.707Z,100385.27
2023-11-15T23:46:58.268Z,100384.04
2023-11-15T23:49:27.116Z,100384.40
2023-11-15T23:51:55.710Z,100385.29
2023-11-15T23:54:23.856Z,100391.16
2023-11-15T23:56:51.857Z,100390.84
2023-11-15T23:59:22.140Z,100392.89
